createdAt,value
2022-12-09T00:01:18.171Z,97885.64
2022-12-09T00:03:56.225Z,97880.91
2022-12-09T00:06:31.303Z,97888.23
2022-12-09T00:09:05.812Z,97887.17
2022-12-09T00:11:38.145Z,97886.48
2022-12-09T00:14:12.576Z,97889.11
2022-12-09T00:16:44.870Z,97890.71
2022-12-09T00:19:18.808Z,97886.30
2022-12-09T00:21:51.200Z,97887.53
2022-12-09T00:24:23.032Z,97887.18
2022-12-09T00:26:56.035Z,97889.65
2022-12-09T00:29:30.667Z,97886.31
2022-12-09T00:32:03.708Z,97891.30
2022-12-09T00:34:36.284Z,97890.75
2022-12-09T00:37:09.079Z,97896.67
2022-12-09T00:39:41.229Z,97897.42
2022-12-09T00:42:13.434Z,97902.88
2022-12-09T00:44:45.372Z,97904.14
2022-12-09T00:47:17.488Z,97906.15
2022-12-09T00:49:49.546Z,97908.06
2022-12-09T00:52:21.764Z,97910.52
2022-12-09T00:54:53.847Z,97912.79
2022-12-09T00:57:28.329Z,97917.00
2022-12-09T01:00:01.926Z,97919.44
2022-12-09T01:02:35.490Z,97916.47
2022-12-09T01:05:10.087Z,97921.30
2022-12-09T01:07:43.815Z,97916.61
2022-12-09T01:10:18.282Z,97913.65
2022-12-09T01:12:51.064Z,97906.02
2022-12-09T01:15:23.364Z,97906.88
2022-12-09T01:17:56.211Z,97907.91
2022-12-09T01:20:29.546Z,97906.51
2022-12-09T01:23:04.540Z,97906.98
2022-12-09T01:25:39.349Z,97903.13
2022-12-09T01:28:12.608Z,97903.33
2022-12-09T01:30:45.216Z,97901.80
2022-12-09T01:33:17.008Z,97900.05
2022-12-09T01:35:52.066Z,97904.03
2022-12-09T01:38:27.156Z,97905.55
2022-12-09T01:40:59.324Z,97905.19
2022-12-09T01:43:32.402Z,97904.89
2022-12-09T01:46:06.995Z,97903.70
2022-12-09T01:48:41.744Z,97899.02
2022-12-09T01:51:20.025Z,97897.60
2022-12-09T01:53:53.611Z,97894.83
2022-12-09T01:56:28.626Z,97894.13
2022-12-09T01:59:07.260Z,97891.49
2022-12-09T02:01:42.376Z,97890.08
2022-12-09T02:04:17.025Z,97887.29
2022-12-09T02:06:49.640Z,97885.84
2022-12-09T02:09:22.335Z,97881.52
2022-12-09T02:12:04.614Z,97873.48
2022-12-09T02:14:43.009Z,97879.21
2022-12-09T02:17:28.743Z,97876.12
2022-12-09T02:20:07.771Z,97877.89
2022-12-09T02:22:44.020Z,97882.59
2022-12-09T02:25:25.969Z,97876.15
2022-12-09T02:28:11.860Z,97878.27
2022-12-09T02:30:50.350Z,97878.95
2022-12-09T02:33:32.318Z,97875.61
2022-12-09T02:36:09.304Z,97880.16
2022-12-09T02:38:46.858Z,97873.88
2022-12-09T02:41:23.249Z,97874.02
2022-12-09T02:44:00.411Z,97872.48
2022-12-09T02:46:33.788Z,97875.11
2022-12-09T02:49:08.029Z,97867.09
2022-12-09T02:51:42.419Z,97869.56
2022-12-09T02:54:17.757Z,97861.39
2022-12-09T02:56:57.815Z,97863.66
2022-12-09T02:59:32.305Z,97860.98
2022-12-09T03:02:14.024Z,97860.95
2022-12-09T03:04:49.798Z,97865.27
2022-12-09T03:07:30.975Z,97861.25
2022-12-09T03:10:08.650Z,97863.55
2022-12-09T03:12:43.365Z,97861.60
2022-12-09T03:15:17.108Z,97861.91
2022-12-09T03:17:50.085Z,97861.04
2022-12-09T03:20:26.469Z,97860.15
2022-12-09T03:23:05.780Z,97854.00
2022-12-09T03:25:43.909Z,97859.74
2022-12-09T03:28:21.909Z,97856.44
2022-12-09T03:30:54.798Z,97857.62
2022-12-09T03:33:30.720Z,97863.17
2022-12-09T03:36:06.903Z,97859.48
2022-12-09T03:38:40.955Z,97858.23
2022-12-09T03:41:18.721Z,97859.29
2022-12-09T03:43:54.950Z,97856.14
2022-12-09T03:46:29.286Z,97855.65
2022-12-09T03:49:03.040Z,97854.27
2022-12-09T03:51:39.799Z,97854.64
2022-12-09T03:54:17.340Z,97853.45
2022-12-09T03:56:57.002Z,97847.91
2022-12-09T03:59:32.903Z,97848.59
2022-12-09T04:02:07.849Z,97848.77
2022-12-09T04:04:43.510Z,97852.43
2022-12-09T04:07:18.150Z,97846.38
2022-12-09T04:09:51.367Z,97845.34
2022-12-09T04:12:23.638Z,97848.51
2022-12-09T04:14:57.688Z,97849.38
2022-12-09T04:17:29.868Z,97851.77
2022-12-09T04:20:04.832Z,97844.73
2022-12-09T04:22:39.296Z,97848.35
2022-12-09T04:25:15.771Z,97850.27
2022-12-09T04:27:52.882Z,97849.20
2022-12-09T04:30:27.142Z,97847.83
2022-12-09T04:33:00.338Z,97849.37
2022-12-09T04:35:37.032Z,97849.51
2022-12-09T04:38:08.987Z,97854.38
2022-12-09T04:40:42.245Z,97850.72
2022-12-09T04:43:19.183Z,97848.24
2022-12-09T04:45:51.718Z,97849.81
2022-12-09T04:48:24.270Z,97849.80
2022-12-09T04:50:56.161Z,97845.06
2022-12-09T04:53:29.842Z,97846.41
2022-12-09T04:56:06.751Z,97844.16
2022-12-09T04:58:39.079Z,97848.55
2022-12-09T05:01:14.535Z,97845.65
2022-12-09T05:03:51.994Z,97847.23
2022-12-09T05:06:26.866Z,97845.86
2022-12-09T05:09:01.305Z,97847.62
2022-12-09T05:11:36.048Z,97849.17
2022-12-09T05:14:09.566Z,97852.17
2022-12-09T05:16:42.740Z,97851.46
2022-12-09T05:19:17.998Z,97850.54
2022-12-09T05:21:50.845Z,97853.65
2022-12-09T05:24:24.870Z,97848.60
2022-12-09T05:26:57.082Z,97852.95
2022-12-09T05:29:32.037Z,97850.13
2022-12-09T05:32:05.086Z,97844.27
2022-12-09T05:34:39.600Z,97845.69
2022-12-09T05:37:16.624Z,97842.33
2022-12-09T05:39:52.628Z,97843.64
2022-12-09T05:42:27.531Z,97841.85
2022-12-09T05:45:00.426Z,97837.10
2022-12-09T05:47:35.387Z,97847.38
2022-12-09T05:50:10.439Z,97849.47
2022-12-09T05:52:43.967Z,97846.34
2022-12-09T05:55:17.045Z,97844.56
2022-12-09T05:57:51.067Z,97847.30
2022-12-09T06:00:25.730Z,97850.79
2022-12-09T06:02:59.271Z,97853.17
2022-12-09T06:05:35.657Z,97854.51
2022-12-09T06:08:09.908Z,97853.91
2022-12-09T06:10:43.441Z,97860.41
2022-12-09T06:13:17.080Z,97859.27
2022-12-09T06:15:52.007Z,97851.20
2022-12-09T06:18:26.124Z,97857.17
2022-12-09T06:20:59.799Z,97851.40
2022-12-09T06:23:34.321Z,97849.45
2022-12-09T06:26:10.477Z,97852.56
2022-12-09T06:28:45.072Z,97855.98
2022-12-09T06:31:19.076Z,97856.27
2022-12-09T06:33:55.300Z,97860.88
2022-12-09T06:36:33.880Z,97857.13
2022-12-09T06:39:10.521Z,97857.29
2022-12-09T06:41:44.999Z,97859.15
2022-12-09T06:44:23.474Z,97857.20
2022-12-09T06:46:57.698Z,97851.81
2022-12-09T06:49:30.103Z,97846.41
2022-12-09T06:52:04.497Z,97843.66
2022-12-09T06:54:40.869Z,97838.50
2022-12-09T06:57:15.108Z,97841.19
2022-12-09T06:59:48.178Z,97840.51
2022-12-09T07:02:20.771Z,97838.28
2022-12-09T07:04:56.768Z,97835.15
2022-12-09T07:07:30.574Z,97836.72
2022-12-09T07:10:08.104Z,97842.83
2022-12-09T07:12:41.275Z,97840.40
2022-12-09T07:15:16.429Z,97833.84
2022-12-09T07:17:49.003Z,97832.64
2022-12-09T07:20:22.349Z,97831.83
2022-12-09T07:22:58.694Z,97827.42
2022-12-09T07:25:31.947Z,97823.48
2022-12-09T07:28:04.427Z,97823.17
2022-12-09T07:30:38.622Z,97826.19
2022-12-09T07:33:12.379Z,97827.05
2022-12-09T07:35:44.788Z,97824.52
2022-12-09T07:38:19.439Z,97828.45
2022-12-09T07:40:54.221Z,97825.95
2022-12-09T07:43:26.528Z,97823.60
2022-12-09T07:45:58.824Z,97824.15
2022-12-09T07:48:31.972Z,97818.98
2022-12-09T07:51:05.682Z,97822.42
2022-12-09T07:53:41.277Z,97830.48
2022-12-09T07:56:16.335Z,97832.24
2022-12-09T07:58:51.309Z,97831.23
2022-12-09T08:01:25.987Z,97827.14
2022-12-09T08:04:01.478Z,97832.20
2022-12-09T08:06:35.843Z,97828.61
2022-12-09T08:09:12.415Z,97839.74
2022-12-09T08:11:44.623Z,97834.21
2022-12-09T08:14:17.611Z,97831.42
2022-12-09T08:16:49.930Z,97835.45
2022-12-09T08:19:24.581Z,97833.44
2022-12-09T08:21:59.165Z,97836.41
2022-12-09T08:24:32.693Z,97839.40
2022-12-09T08:27:06.057Z,97846.77
2022-12-09T08:29:40.191Z,97846.13
2022-12-09T08:32:15.055Z,97843.67
2022-12-09T08:34:48.380Z,97845.98
2022-12-09T08:37:21.702Z,97846.92
2022-12-09T08:39:55.248Z,97847.64
2022-12-09T08:42:30.679Z,97843.44
2022-12-09T08:45:06.671Z,97843.15
2022-12-09T08:47:39.568Z,97841.68
2022-12-09T08:50:14.446Z,97840.20
2022-12-09T08:52:46.670Z,97835.20
2022-12-09T08:55:18.965Z,97830.27
2022-12-09T08:57:53.989Z,97826.88
2022-12-09T09:00:27.865Z,97825.23
2022-12-09T09:03:01.235Z,97826.61
2022-12-09T09:05:35.181Z,97832.94
2022-12-09T09:08:11.147Z,97829.96
2022-12-09T09:10:44.101Z,97827.73
2022-12-09T09:13:19.610Z,97827.42
2022-12-09T09:15:52.632Z,97831.08
2022-12-09T09:18:26.382Z,97825.89
2022-12-09T09:20:59.753Z,97816.50
2022-12-09T09:23:33.290Z,97810.43
2022-12-09T09:26:07.011Z,97809.55
2022-12-09T09:28:39.949Z,97811.12
2022-12-09T09:31:16.661Z,97805.74
2022-12-09T09:33:49.915Z,97805.23
2022-12-09T09:36:25.076Z,97805.79
2022-12-09T09:39:00.278Z,97802.16
2022-12-09T09:41:46.334Z,97797.83
2022-12-09T09:44:25.602Z,97803.26
2022-12-09T09:47:01.238Z,97796.69
2022-12-09T09:49:41.395Z,97794.42
2022-12-09T09:52:19.084Z,97788.68
2022-12-09T09:54:51.979Z,97792.89
2022-12-09T09:57:31.546Z,97782.92
2022-12-09T10:00:19.638Z,97790.30
2022-12-09T10:03:00.984Z,97780.68
2022-12-09T10:05:36.032Z,97779.48
2022-12-09T10:08:33.682Z,97775.30
2022-12-09T10:11:18.925Z,97766.75
2022-12-09T10:14:00.448Z,97772.70
2022-12-09T10:16:37.989Z,97768.33
2022-12-09T10:19:18.957Z,97771.99
2022-12-09T10:21:55.425Z,97773.91
2022-12-09T10:24:39.301Z,97773.22
2022-12-09T10:27:19.999Z,97762.56
2022-12-09T10:29:57.828Z,97766.75
2022-12-09T10:32:33.757Z,97766.05
2022-12-09T10:35:16.983Z,97760.98
2022-12-09T10:37:52.509Z,97750.16
2022-12-09T10:40:37.093Z,97742.81
2022-12-09T10:43:38.643Z,97743.52
2022-12-09T10:46:19.251Z,97749.29
2022-12-09T10:49:03.366Z,97749.98
2022-12-09T10:51:39.694Z,97753.48
2022-12-09T10:54:29.025Z,97749.98
2022-12-09T10:57:25.094Z,97753.31
2022-12-09T11:00:07.939Z,97750.33
2022-12-09T11:02:53.079Z,97741.60
2022-12-09T11:05:30.332Z,97749.11
2022-12-09T11:08:05.181Z,97745.63
2022-12-09T11:10:40.021Z,97746.84
2022-12-09T11:13:21.053Z,97747.02
2022-12-09T11:15:59.652Z,97748.23
2022-12-09T11:18:37.992Z,97741.44
2022-12-09T11:21:31.717Z,97736.53
2022-12-09T11:24:06.882Z,97730.26
2022-12-09T11:26:43.297Z,97726.75
2022-12-09T11:29:19.692Z,97725.88
2022-12-09T11:31:56.310Z,97721.86
2022-12-09T11:34:29.063Z,97716.61
2022-12-09T11:37:02.851Z,97718.38
2022-12-09T11:39:36.464Z,97707.52
2022-12-09T11:42:18.840Z,97695.29
2022-12-09T11:44:58.026Z,97689.52
2022-12-09T11:47:57.331Z,97688.95
2022-12-09T11:50:31.710Z,97689.80
2022-12-09T11:53:25.436Z,97686.06
2022-12-09T11:56:03.301Z,97676.41
2022-12-09T11:58:40.587Z,97676.66
2022-12-09T12:01:16.772Z,97672.38
2022-12-09T12:03:54.027Z,97676.14
2022-12-09T12:06:28.728Z,97672.86
2022-12-09T12:09:07.136Z,97671.94
2022-12-09T12:11:43.273Z,97667.33
2022-12-09T12:14:24.675Z,97662.95
2022-12-09T12:17:05.122Z,97668.20
2022-12-09T12:19:40.215Z,97664.40
2022-12-09T12:22:26.719Z,97663.20
2022-12-09T12:25:17.780Z,97654.92
2022-12-09T12:28:14.302Z,97651.14
2022-12-09T12:30:54.278Z,97633.36
2022-12-09T12:34:07.917Z,97628.98
2022-12-09T12:36:39.577Z,97631.27
2022-12-09T12:39:20.438Z,97624.97
2022-12-09T12:42:01.415Z,97628.98
2022-12-09T12:45:11.575Z,97629.00
2022-12-09T12:47:48.548Z,97623.77
2022-12-09T12:50:39.897Z,97623.60
2022-12-09T12:53:19.254Z,97626.05
2022-12-09T12:55:58.531Z,97632.35
2022-12-09T12:58:44.336Z,97626.58
2022-12-09T13:01:30.274Z,97621.31
2022-12-09T13:04:18.878Z,97616.05
2022-12-09T13:06:54.267Z,97612.94
2022-12-09T13:09:30.705Z,97613.66
2022-12-09T13:12:11.548Z,97613.35
2022-12-09T13:14:52.249Z,97611.96
2022-12-09T13:17:28.546Z,97605.52
2022-12-09T13:20:02.938Z,97602.55
2022-12-09T13:22:41.957Z,97603.77
2022-12-09T13:25:26.132Z,97608.33
2022-12-09T13:28:02.292Z,97604.15
2022-12-09T13:30:39.555Z,97599.45
2022-12-09T13:33:30.803Z,97599.10
2022-12-09T13:36:06.589Z,97597.36
2022-12-09T13:38:42.411Z,97590.39
2022-12-09T13:41:59.704Z,97583.75
2022-12-09T13:44:36.232Z,97581.49
2022-12-09T13:47:29.470Z,97590.76
2022-12-09T13:50:06.838Z,97589.88
2022-12-09T13:52:46.187Z,97587.79
2022-12-09T13:55:32.934Z,97584.12
2022-12-09T13:58:27.016Z,97576.45
2022-12-09T14:01:07.719Z,97573.48
2022-12-09T14:03:41.587Z,97575.40
2022-12-09T14:06:23.627Z,97570.84
2022-12-09T14:08:58.537Z,97573.30
2022-12-09T14:11:49.504Z,97579.05
2022-12-09T14:15:02.036Z,97581.17
2022-12-09T14:18:04.567Z,97587.80
2022-12-09T14:20:40.459Z,97583.79
2022-12-09T14:23:19.180Z,97578.89
2022-12-09T14:26:09.944Z,97581.52
2022-12-09T14:28:57.153Z,97580.12
2022-12-09T14:31:59.905Z,97574.37
2022-12-09T14:34:42.081Z,97574.89
2022-12-09T14:37:52.212Z,97573.15
2022-12-09T14:40:35.632Z,97572.61
2022-12-09T14:43:22.326Z,97572.79
2022-12-09T14:45:58.062Z,97572.77
2022-12-09T14:48:34.350Z,97578.85
2022-12-09T14:51:16.244Z,97572.77
2022-12-09T14:53:53.384Z,97570.14
2022-12-09T14:56:28.554Z,97572.39
2022-12-09T14:59:04.823Z,97570.83
2022-12-09T15:01:53.124Z,97573.25
2022-12-09T15:04:34.303Z,97575.81
2022-12-09T15:07:21.107Z,97574.21
2022-12-09T15:09:58.327Z,97576.46
2022-12-09T15:12:34.233Z,97570.38
2022-12-09T15:15:13.836Z,97564.63
2022-12-09T15:17:49.816Z,97557.83
2022-12-09T15:20:27.394Z,97552.27
2022-12-09T15:23:03.988Z,97553.15
2022-12-09T15:25:38.379Z,97544.43
2022-12-09T15:28:21.440Z,97538.86
2022-12-09T15:31:00.296Z,97528.73
2022-12-09T15:33:41.388Z,97520.16
2022-12-09T15:36:16.048Z,97525.48
2022-12-09T15:38:51.310Z,97518.97
2022-12-09T15:41:41.731Z,97518.44
2022-12-09T15:44:18.910Z,97511.83
2022-12-09T15:46:53.644Z,97511.05
2022-12-09T15:49:27.554Z,97511.30
2022-12-09T15:52:00.217Z,97503.23
2022-12-09T15:54:35.880Z,97502.33
2022-12-09T15:57:10.259Z,97504.41
2022-12-09T15:59:49.723Z,97495.86
2022-12-09T16:02:29.880Z,97497.58
2022-12-09T16:05:05.795Z,97491.96
2022-12-09T16:07:39.550Z,97488.73
2022-12-09T16:10:17.525Z,97482.75
2022-12-09T16:13:09.948Z,97482.88
2022-12-09T16:15:54.423Z,97480.40
2022-12-09T16:18:30.196Z,97474.34
2022-12-09T16:21:27.739Z,97476.77
2022-12-09T16:24:14.077Z,97476.98
2022-12-09T16:26:51.157Z,97470.22
2022-12-09T16:29:27.412Z,97466.55
2022-12-09T16:32:23.504Z,97466.75
2022-12-09T16:34:57.655Z,97461.48
2022-12-09T16:37:40.025Z,97462.86
2022-12-09T16:40:48.625Z,97461.33
2022-12-09T16:43:26.248Z,97458.88
2022-12-09T16:45:59.886Z,97456.48
2022-12-09T16:48:33.264Z,97455.99
2022-12-09T16:51:14.459Z,97451.14
2022-12-09T16:53:50.925Z,97448.54
2022-12-09T16:56:26.141Z,97445.94
2022-12-09T16:58:59.343Z,97442.30
2022-12-09T17:01:37.144Z,97439.67
2022-12-09T17:04:16.291Z,97441.73
2022-12-09T17:06:49.031Z,97438.80
2022-12-09T17:09:21.815Z,97435.89
2022-12-09T17:11:54.309Z,97438.70
2022-12-09T17:14:28.959Z,97440.62
2022-12-09T17:17:04.011Z,97435.60
2022-12-09T17:19:38.580Z,97435.42
2022-12-09T17:22:11.133Z,97431.59
2022-12-09T17:24:44.784Z,97425.66
2022-12-09T17:27:18.249Z,97422.16
2022-12-09T17:29:51.039Z,97419.72
2022-12-09T17:32:23.615Z,97416.77
2022-12-09T17:34:58.182Z,97410.30
2022-12-09T17:37:31.027Z,97412.16
2022-12-09T17:40:04.728Z,97408.50
2022-12-09T17:42:37.881Z,97403.32
2022-12-09T17:45:12.144Z,97398.98
2022-12-09T17:47:44.176Z,97394.80
2022-12-09T17:50:17.293Z,97394.94
2022-12-09T17:52:49.909Z,97396.23
2022-12-09T17:55:22.197Z,97396.29
2022-12-09T17:57:57.821Z,97399.20
2022-12-09T18:00:30.754Z,97397.15
2022-12-09T18:03:05.358Z,97394.77
2022-12-09T18:05:41.371Z,97395.27
2022-12-09T18:08:15.865Z,97392.87
2022-12-09T18:10:52.185Z,97389.76
2022-12-09T18:13:24.295Z,97392.38
2022-12-09T18:15:57.663Z,97388.92
2022-12-09T18:18:31.515Z,97383.55
2022-12-09T18:21:10.603Z,97383.71
2022-12-09T18:23:48.322Z,97376.78
2022-12-09T18:26:25.752Z,97372.59
2022-12-09T18:29:00.945Z,97368.22
2022-12-09T18:31:36.884Z,97363.71
2022-12-09T18:34:09.872Z,97365.13
2022-12-09T18:36:43.453Z,97360.49
2022-12-09T18:39:19.298Z,97354.90
2022-12-09T18:41:51.719Z,97361.22
2022-12-09T18:44:27.223Z,97360.80
2022-12-09T18:47:00.810Z,97364.45
2022-12-09T18:49:37.479Z,97360.98
2022-12-09T18:52:10.557Z,97362.99
2022-12-09T18:54:42.857Z,97359.73
2022-12-09T18:57:15.091Z,97352.63
2022-12-09T18:59:49.035Z,97350.89
2022-12-09T19:02:21.738Z,97349.02
2022-12-09T19:04:54.676Z,97342.94
2022-12-09T19:07:32.075Z,97347.44
2022-12-09T19:10:06.679Z,97345.70
2022-12-09T19:12:49.730Z,97346.14
2022-12-09T19:15:23.973Z,97339.20
2022-12-09T19:17:57.537Z,97332.95
2022-12-09T19:20:32.654Z,97330.17
2022-12-09T19:23:06.052Z,97336.08
2022-12-09T19:25:43.082Z,97330.89
2022-12-09T19:28:17.545Z,97326.20
2022-12-09T19:30:51.050Z,97324.63
2022-12-09T19:33:25.056Z,97320.81
2022-12-09T19:35:57.212Z,97316.80
2022-12-09T19:38:33.057Z,97322.71
2022-12-09T19:41:07.449Z,97319.92
2022-12-09T19:43:42.256Z,97315.19
2022-12-09T19:46:15.914Z,97315.73
2022-12-09T19:48:51.392Z,97315.23
2022-12-09T19:51:26.095Z,97313.69
2022-12-09T19:54:00.838Z,97314.02
2022-12-09T19:56:35.496Z,97315.23
2022-12-09T19:59:10.211Z,97316.64
2022-12-09T20:01:45.540Z,97311.60
2022-12-09T20:04:47.649Z,97305.70
2022-12-09T20:07:13.165Z,97300.85
2022-12-09T20:09:46.465Z,97295.97
2022-12-09T20:12:18.543Z,97295.97
2022-12-09T20:14:52.326Z,97288.16
2022-12-09T20:17:24.506Z,97299.09
2022-12-09T20:19:58.115Z,97298.77
2022-12-09T20:22:32.225Z,97298.11
2022-12-09T20:25:06.424Z,97294.64
2022-12-09T20:27:39.581Z,97295.48
2022-12-09T20:30:19.550Z,97293.20
2022-12-09T20:32:52.266Z,97294.08
2022-12-09T20:35:24.713Z,97292.73
2022-12-09T20:37:56.802Z,97287.36
2022-12-09T20:40:28.957Z,97285.63
2022-12-09T20:43:02.056Z,97282.02
2022-12-09T20:45:36.882Z,97281.00
2022-12-09T20:48:10.291Z,97282.23
2022-12-09T20:50:43.153Z,97275.63
2022-12-09T20:53:17.477Z,97280.81
2022-12-09T20:55:59.576Z,97278.20
2022-12-09T20:58:34.720Z,97278.39
2022-12-09T21:01:13.290Z,97276.29
2022-12-09T21:03:48.394Z,97274.86
2022-12-09T21:06:23.340Z,97276.05
2022-12-09T21:08:58.361Z,97273.98
2022-12-09T21:11:33.177Z,97273.81
2022-12-09T21:14:09.025Z,97274.31
2022-12-09T21:16:42.769Z,97277.25
2022-12-09T21:19:20.205Z,97277.27
2022-12-09T21:21:55.748Z,97277.07
2022-12-09T21:24:28.789Z,97275.48
2022-12-09T21:27:03.080Z,97275.80
2022-12-09T21:29:36.986Z,97278.05
2022-12-09T21:32:09.396Z,97272.66
2022-12-09T21:34:44.261Z,97273.01
2022-12-09T21:37:19.119Z,97266.95
2022-12-09T21:39:53.950Z,97266.59
2022-12-09T21:42:28.893Z,97264.84
2022-12-09T21:45:04.400Z,97266.91
2022-12-09T21:47:39.455Z,97270.73
2022-12-09T21:50:15.046Z,97277.52
2022-12-09T21:52:47.713Z,97276.09
2022-12-09T21:55:19.794Z,97274.34
2022-12-09T21:57:53.950Z,97270.34
2022-12-09T22:00:27.058Z,97268.98
2022-12-09T22:02:59.423Z,97270.58
2022-12-09T22:05:32.207Z,97273.55
2022-12-09T22:08:05.079Z,97275.29
2022-12-09T22:10:40.489Z,97279.09
2022-12-09T22:13:13.211Z,97278.58
2022-12-09T22:15:46.305Z,97276.67
2022-12-09T22:18:19.713Z,97271.08
2022-12-09T22:21:23.548Z,97270.04
2022-12-09T22:23:46.789Z,97273.38
2022-12-09T22:26:21.235Z,97274.03
2022-12-09T22:28:54.917Z,97271.95
2022-12-09T22:31:28.287Z,97271.06
2022-12-09T22:34:03.143Z,97266.04
2022-12-09T22:36:38.504Z,97267.23
2022-12-09T22:39:14.020Z,97266.70
2022-12-09T22:41:46.484Z,97267.03
2022-12-09T22:44:20.271Z,97267.02
2022-12-09T22:46:54.047Z,97268.20
2022-12-09T22:49:26.968Z,97266.63
2022-12-09T22:52:00.927Z,97263.17
2022-12-09T22:54:33.501Z,97263.48
2022-12-09T22:57:07.087Z,97259.11
2022-12-09T22:59:42.950Z,97264.52
2022-12-09T23:02:16.507Z,97264.50
2022-12-09T23:04:51.291Z,97270.94
2022-12-09T23:07:24.821Z,97270.95
2022-12-09T23:09:57.362Z,97272.38
2022-12-09T23:12:31.442Z,97278.14
2022-12-09T23:15:03.278Z,97267.53
2022-12-09T23:17:37.246Z,97263.70
2022-12-09T23:20:12.315Z,97270.44
2022-12-09T23:22:44.973Z,97275.98
2022-12-09T23:25:17.451Z,97280.66
2022-12-09T23:27:51.936Z,97267.96
2022-12-09T23:30:24.504Z,97262.60
2022-12-09T23:32:57.001Z,97264.30
2022-12-09T23:35:29.186Z,97261.58
2022-12-09T23:38:01.023Z,97259.33
2022-12-09T23:40:36.656Z,97257.73
2022-12-09T23:43:09.879Z,97257.48
2022-12-09T23:45:42.939Z,97256.73
2022-12-09T23:48:19.741Z,97262.09
2022-12-09T23:50:52.435Z,97254.31
2022-12-09T23:53:24.666Z,97251.56
2022-12-09T23:55:56.777Z,97251.95
2022-12-09T23:58:30.952Z,97249.70
